Time;durP1;ratioP1;P1;durP2;ratioP2;P2;SDS_P1;SDS_P2;PMS_P1;PMS_P2;Temp;Humidity;BMP_temperature;BMP_pressure;BME280_temperature;BME280_humidity;BME280_pressure;Samples;Min_cycle;Max_cycle;Signal;HPM_P1;HPM_P2
2021/01/23 00:00:00;;;;;;;25.27;12.73;;;;;;;;;;5092459;28;20046;-72
2021/01/23 00:02:26;;;;;;;20.10;9.68;;;;;;;;;;5089819;28;20020;-70
2021/01/23 00:04:55;;;;;;;21.15;9.80;;;;;;;;;;5090768;28;20028;-70
2021/01/23 00:07:28;;;;;;;20.33;10.30;;;;;;;;;;5093062;28;20020;-74
2021/01/23 00:10:02;;;;;;;15.27;9.05;;;;;;;;;;5090019;28;20380;-76
2021/01/23 00:12:29;;;;;;;16.65;9.88;;;;;;;;;;5087662;28;20019;-73
2021/01/23 00:14:55;;;;;;;13.82;7.68;;;;;;;;;;5091915;28;20067;-72
2021/01/23 00:17:21;;;;;;;19.75;10.55;;;;;;;;;;5092516;28;20067;-71
2021/01/23 00:19:47;;;;;;;18.95;8.82;;;;;;;;;;5095462;28;20070;-72
2021/01/23 00:22:13;;;;;;;16.77;7.78;;;;;;;;;;5096624;28;20074;-72
2021/01/23 00:24:40;;;;;;;21.50;13.20;;;;;;;;;;5098072;28;20020;-72
2021/01/23 00:27:06;;;;;;;17.55;9.68;;;;;;;;;;5096235;28;20475;-72
2021/01/23 00:29:32;;;;;;;17.45;9.80;;;;;;;;;;5097737;28;20135;-72
2021/01/23 00:31:58;;;;;;;15.88;8.82;;;;;;;;;;5111149;28;20043;-71
2021/01/23 00:34:24;;;;;;;23.17;10.45;;;;;;;;;;5096035;28;20356;-72
2021/01/23 00:36:50;;;;;;;11.60;7.05;;;;;;;;;;5096575;28;20419;-72
2021/01/23 00:39:16;;;;;;;15.55;8.80;;;;;;;;;;5096388;28;20024;-71
2021/01/23 00:41:43;;;;;;;17.95;9.73;;;;;;;;;;5095999;28;20114;-72
2021/01/23 00:44:09;;;;;;;16.65;8.45;;;;;;;;;;5095549;28;20118;-71
2021/01/23 00:46:35;;;;;;;17.75;9.82;;;;;;;;;;5095709;28;20027;-74
2021/01/23 00:49:01;;;;;;;19.60;9.90;;;;;;;;;;5097086;28;20484;-72
2021/01/23 00:51:27;;;;;;;15.48;8.35;;;;;;;;;;5096036;28;20031;-71
2021/01/23 00:53:53;;;;;;;16.10;8.82;;;;;;;;;;5095682;28;20474;-73
2021/01/23 00:56:19;;;;;;;15.13;8.57;;;;;;;;;;5096008;28;20020;-71
2021/01/23 00:58:45;;;;;;;13.40;7.95;;;;;;;;;;5095993;28;20027;-72
2021/01/23 01:01:12;;;;;;;13.65;8.00;;;;;;;;;;5095400;28;20040;-71
2021/01/23 01:03:38;;;;;;;11.02;7.03;;;;;;;;;;5095616;28;20012;-73
2021/01/23 01:06:05;;;;;;;7.78;5.20;;;;;;;;;;5095887;28;20024;-73
2021/01/23 01:08:31;;;;;;;10.55;6.35;;;;;;;;;;5095514;28;20015;-72
2021/01/23 01:10:57;;;;;;;10.88;6.22;;;;;;;;;;5097054;28;20012;-69
2021/01/23 01:13:23;;;;;;;14.05;8.07;;;;;;;;;;5096999;28;20098;-69
2021/01/23 01:15:50;;;;;;;15.55;6.63;;;;;;;;;;5096291;28;20044;-70
2021/01/23 01:18:16;;;;;;;9.68;5.53;;;;;;;;;;5097048;28;20099;-71
2021/01/23 01:20:42;;;;;;;10.23;5.93;;;;;;;;;;5095544;28;20020;-70
2021/01/23 01:23:08;;;;;;;10.15;5.63;;;;;;;;;;5096242;28;20016;-73
2021/01/23 01:25:35;;;;;;;10.38;5.05;;;;;;;;;;5096486;28;20020;-71
2021/01/23 01:28:01;;;;;;;10.48;7.05;;;;;;;;;;5093740;28;20371;-71
2021/01/23 01:30:27;;;;;;;10.80;5.85;;;;;;;;;;5094375;28;20016;-75
2021/01/23 01:32:53;;;;;;;10.77;6.40;;;;;;;;;;5095425;28;20461;-75
2021/01/23 01:35:19;;;;;;;13.00;7.32;;;;;;;;;;5096611;28;20028;-71
2021/01/23 01:37:45;;;;;;;14.95;7.57;;;;;;;;;;5096319;28;20091;-72
2021/01/23 01:40:12;;;;;;;10.10;5.68;;;;;;;;;;5095244;28;20101;-72
2021/01/23 01:42:38;;;;;;;11.88;6.70;;;;;;;;;;5094737;28;20108;-72
2021/01/23 01:45:05;;;;;;;12.65;7.70;;;;;;;;;;5095219;28;20028;-73
2021/01/23 01:47:32;;;;;;;14.52;6.97;;;;;;;;;;5095139;28;20026;-74
2021/01/23 01:49:58;;;;;;;13.10;7.23;;;;;;;;;;5094803;28;20044;-71
2021/01/23 01:52:24;;;;;;;9.23;5.18;;;;;;;;;;5094978;28;20306;-72
2021/01/23 01:54:51;;;;;;;14.65;7.13;;;;;;;;;;5095854;28;20364;-71
2021/01/23 01:57:23;;;;;;;11.15;5.70;;;;;;;;;;5095859;28;20027;-72
2021/01/23 01:59:50;;;;;;;12.30;5.18;;;;;;;;;;5096717;28;20048;-75
2021/01/23 02:02:28;;;;;;;8.30;4.20;;;;;;;;;;5094826;28;20020;-72
2021/01/23 02:05:01;;;;;;;9.73;4.70;;;;;;;;;;5093992;28;20031;-72
2021/01/23 02:07:48;;;;;;;8.68;4.20;;;;;;;;;;5094745;28;20034;-75
2021/01/23 02:10:14;;;;;;;7.07;4.43;;;;;;;;;;5084690;28;20036;-73
2021/01/23 02:12:49;;;;;;;7.28;4.22;;;;;;;;;;5094383;28;20457;-73
2021/01/23 02:15:21;;;;;;;8.90;5.00;;;;;;;;;;5095855;28;20052;-76
2021/01/23 02:17:57;;;;;;;8.80;4.95;;;;;;;;;;5094912;28;20020;-72
2021/01/23 02:20:26;;;;;;;6.82;4.00;;;;;;;;;;5094321;28;20016;-74
2021/01/23 02:23:10;;;;;;;9.57;4.78;;;;;;;;;;5095043;28;20406;-74
2021/01/23 02:25:40;;;;;;;10.00;4.60;;;;;;;;;;5094204;28;20453;-71
2021/01/23 02:28:14;;;;;;;9.40;5.40;;;;;;;;;;5094337;28;20512;-71
2021/01/23 02:30:48;;;;;;;15.10;8.07;;;;;;;;;;5095311;28;20493;-72
2021/01/23 02:33:16;;;;;;;9.13;4.53;;;;;;;;;;5094192;28;20037;-72
2021/01/23 02:35:43;;;;;;;7.32;4.75;;;;;;;;;;5095402;28;20474;-72
2021/01/23 02:38:09;;;;;;;6.45;3.75;;;;;;;;;;5095436;28;20077;-72
2021/01/23 02:40:36;;;;;;;11.63;4.95;;;;;;;;;;5094658;28;20047;-73
2021/01/23 02:43:04;;;;;;;7.32;4.53;;;;;;;;;;5093440;28;20341;-72
2021/01/23 02:45:30;;;;;;;7.80;4.72;;;;;;;;;;5093734;28;20027;-72
2021/01/23 02:47:57;;;;;;;6.55;4.15;;;;;;;;;;5094061;28;20369;-70
2021/01/23 02:50:23;;;;;;;4.63;3.10;;;;;;;;;;5093913;28;20022;-74
2021/01/23 02:52:55;;;;;;;9.10;4.60;;;;;;;;;;5094947;28;20101;-74
2021/01/23 02:55:22;;;;;;;8.73;4.90;;;;;;;;;;5093776;28;20056;-74
2021/01/23 02:57:49;;;;;;;7.88;4.72;;;;;;;;;;5095155;28;20028;-73
2021/01/23 03:00:16;;;;;;;14.50;6.53;;;;;;;;;;5093467;28;20024;-76
2021/01/23 03:02:44;;;;;;;8.90;5.13;;;;;;;;;;5093576;28;20027;-73
2021/01/23 03:05:11;;;;;;;10.45;5.28;;;;;;;;;;5094519;28;20052;-75
2021/01/23 03:07:37;;;;;;;13.18;5.75;;;;;;;;;;5094331;28;20058;-74
2021/01/23 03:10:04;;;;;;;10.50;4.93;;;;;;;;;;5093636;28;20457;-73
2021/01/23 03:12:30;;;;;;;20.30;11.23;;;;;;;;;;5094802;28;20020;-76
2021/01/23 03:14:57;;;;;;;16.50;6.20;;;;;;;;;;5093309;28;20047;-73
2021/01/23 03:17:23;;;;;;;28.92;11.20;;;;;;;;;;5093425;28;20020;-72
2021/01/23 03:19:49;;;;;;;9.38;5.38;;;;;;;;;;5094896;28;20066;-71
2021/01/23 03:22:15;;;;;;;16.02;8.40;;;;;;;;;;5092561;28;20035;-71
2021/01/23 03:24:41;;;;;;;10.98;6.65;;;;;;;;;;5093341;28;20055;-72
2021/01/23 03:27:07;;;;;;;10.63;5.97;;;;;;;;;;5094349;28;20073;-71
2021/01/23 03:29:33;;;;;;;11.20;6.13;;;;;;;;;;5094215;28;20016;-70
2021/01/23 03:31:59;;;;;;;13.23;6.75;;;;;;;;;;5093591;28;20393;-72
2021/01/23 03:34:25;;;;;;;15.15;7.13;;;;;;;;;;5094442;28;20034;-72
2021/01/23 03:36:51;;;;;;;20.90;11.07;;;;;;;;;;5093139;28;20046;-72
2021/01/23 03:39:17;;;;;;;10.48;5.53;;;;;;;;;;5093210;28;20093;-71
2021/01/23 03:41:43;;;;;;;10.80;6.93;;;;;;;;;;5093409;28;20184;-71
2021/01/23 03:44:09;;;;;;;9.70;4.30;;;;;;;;;;5093081;28;20020;-74
2021/01/23 03:46:36;;;;;;;10.90;6.40;;;;;;;;;;5093662;28;20022;-71
2021/01/23 03:49:02;;;;;;;12.82;7.47;;;;;;;;;;5094575;28;20065;-71
2021/01/23 03:51:28;;;;;;;14.68;6.43;;;;;;;;;;5093481;28;20066;-71
2021/01/23 03:53:54;;;;;;;10.23;5.70;;;;;;;;;;5092323;28;20561;-70
2021/01/23 03:56:20;;;;;;;19.88;11.13;;;;;;;;;;5092516;28;20031;-72
2021/01/23 03:58:47;;;;;;;14.65;6.05;;;;;;;;;;5094401;28;20012;-70
2021/01/23 04:01:13;;;;;;;36.72;15.15;;;;;;;;;;5093070;28;20461;-71
2021/01/23 04:03:39;;;;;;;15.27;7.55;;;;;;;;;;5092240;28;20031;-71
2021/01/23 04:06:05;;;;;;;20.73;9.27;;;;;;;;;;5092733;28;20012;-71
2021/01/23 04:08:31;;;;;;;16.73;4.82;;;;;;;;;;5093712;28;20016;-73
2021/01/23 04:10:57;;;;;;;8.95;4.55;;;;;;;;;;5092393;28;20452;-72
2021/01/23 04:13:24;;;;;;;16.75;8.95;;;;;;;;;;5093648;28;20020;-73
2021/01/23 04:15:53;;;;;;;16.42;10.10;;;;;;;;;;5092585;28;20024;-73
2021/01/23 04:18:19;;;;;;;19.48;10.60;;;;;;;;;;5092295;28;20529;-71
2021/01/23 04:20:45;;;;;;;16.30;7.63;;;;;;;;;;5092280;28;20020;-73
2021/01/23 04:23:11;;;;;;;9.15;6.00;;;;;;;;;;5092539;28;20406;-71
2021/01/23 04:25:37;;;;;;;8.18;4.53;;;;;;;;;;5092194;28;20024;-73
2021/01/23 04:28:03;;;;;;;8.27;5.40;;;;;;;;;;5093278;28;20085;-71
2021/01/23 04:30:29;;;;;;;12.30;4.50;;;;;;;;;;5092238;28;20392;-73
2021/01/23 04:32:55;;;;;;;11.70;4.78;;;;;;;;;;5092167;28;20024;-73
2021/01/23 04:35:22;;;;;;;7.88;4.13;;;;;;;;;;5093715;28;20081;-72
2021/01/23 04:37:48;;;;;;;9.95;2.97;;;;;;;;;;5092884;28;20029;-72
2021/01/23 04:40:14;;;;;;;6.10;3.75;;;;;;;;;;5093694;28;20050;-74
2021/01/23 04:42:42;;;;;;;11.43;5.38;;;;;;;;;;5092436;28;20016;-73
2021/01/23 04:45:08;;;;;;;;;;;;;;;;;;5092213;28;20027;-72
2021/01/23 04:47:34;;;;;;;10.73;4.47;;;;;;;;;;5092690;28;19900;-72
2021/01/23 04:50:00;;;;;;;73.28;43.40;;;;;;;;;;5092151;28;20342;-72
2021/01/23 04:52:26;;;;;;;123.78;71.10;;;;;;;;;;5091983;28;20016;-72
2021/01/23 04:54:53;;;;;;;11.65;5.97;;;;;;;;;;5093626;28;20016;-72
2021/01/23 04:57:19;;;;;;;41.80;25.83;;;;;;;;;;5092114;28;20052;-73
2021/01/23 04:59:45;;;;;;;17.30;7.63;;;;;;;;;;5092363;28;20361;-73
2021/01/23 05:02:21;;;;;;;12.40;6.05;;;;;;;;;;5092185;28;20020;-72
2021/01/23 05:04:48;;;;;;;18.33;10.00;;;;;;;;;;5092646;28;20031;-74
2021/01/23 05:07:33;;;;;;;13.90;6.63;;;;;;;;;;5081355;28;20023;-72
2021/01/23 05:10:19;;;;;;;9.57;4.85;;;;;;;;;;5096715;28;20457;-72
2021/01/23 05:12:46;;;;;;;18.43;9.17;;;;;;;;;;5095291;28;20058;-71
2021/01/23 05:15:19;;;;;;;20.02;11.50;;;;;;;;;;5097168;28;20024;-72
2021/01/23 05:17:49;;;;;;;18.58;10.25;;;;;;;;;;5097253;28;20024;-75
2021/01/23 05:20:34;;;;;;;13.13;7.88;;;;;;;;;;5095644;28;20098;-74
2021/01/23 05:23:01;;;;;;;74.95;37.72;;;;;;;;;;5095679;28;20020;-73
2021/01/23 05:25:28;;;;;;;19.45;8.75;;;;;;;;;;5096654;28;20024;-72
2021/01/23 05:27:55;;;;;;;25.30;11.57;;;;;;;;;;5094701;28;20074;-72
2021/01/23 05:30:21;;;;;;;37.10;17.40;;;;;;;;;;5095747;28;20111;-73
2021/01/23 05:33:07;;;;;;;25.50;12.50;;;;;;;;;;5095002;28;20043;-72
2021/01/23 05:35:34;;;;;;;23.67;11.90;;;;;;;;;;5096241;28;20032;-72
2021/01/23 05:38:00;;;;;;;30.43;14.50;;;;;;;;;;5095379;28;20257;-71
2021/01/23 05:40:30;;;;;;;33.55;15.38;;;;;;;;;;5094774;28;20020;-71
2021/01/23 05:42:56;;;;;;;17.98;8.13;;;;;;;;;;5095250;28;20516;-72
2021/01/23 05:45:22;;;;;;;43.67;19.70;;;;;;;;;;5097700;28;20028;-73
2021/01/23 05:47:48;;;;;;;23.10;11.25;;;;;;;;;;5096119;28;20107;-71
2021/01/23 05:50:15;;;;;;;25.77;12.55;;;;;;;;;;5095081;28;20027;-69
2021/01/23 05:52:41;;;;;;;20.63;11.32;;;;;;;;;;5095065;28;20020;-70
2021/01/23 05:55:08;;;;;;;18.20;9.30;;;;;;;;;;5094326;28;20030;-73
2021/01/23 05:57:34;;;;;;;16.97;7.00;;;;;;;;;;5094705;28;20024;-71
2021/01/23 06:00:01;;;;;;;19.45;10.10;;;;;;;;;;5095541;28;20543;-74
2021/01/23 06:02:27;;;;;;;19.63;7.93;;;;;;;;;;5095717;28;20413;-71
2021/01/23 06:04:54;;;;;;;34.55;17.17;;;;;;;;;;5095721;28;20078;-72
2021/01/23 06:07:38;;;;;;;19.92;9.52;;;;;;;;;;5094797;28;20051;-74
2021/01/23 06:10:05;;;;;;;13.63;7.82;;;;;;;;;;5095694;28;20027;-75
2021/01/23 06:12:31;;;;;;;35.00;15.18;;;;;;;;;;5094728;28;20458;-71
2021/01/23 06:14:57;;;;;;;20.17;11.18;;;;;;;;;;5094670;28;20026;-70
2021/01/23 06:17:45;;;;;;;13.73;6.47;;;;;;;;;;5093334;28;20024;-72
2021/01/23 06:20:12;;;;;;;83.07;39.97;;;;;;;;;;5094537;28;20393;-68
2021/01/23 06:22:54;;;;;;;58.33;24.13;;;;;;;;;;5094145;28;20016;-68
2021/01/23 06:25:20;;;;;;;52.70;27.15;;;;;;;;;;5095765;28;20020;-68
2021/01/23 06:27:47;;;;;;;53.72;28.75;;;;;;;;;;5095705;28;20043;-69
2021/01/23 06:30:29;;;;;;;25.25;11.73;;;;;;;;;;5094414;28;20085;-67
2021/01/23 06:32:55;;;;;;;20.20;11.27;;;;;;;;;;5094336;28;20101;-72
2021/01/23 06:35:21;;;;;;;24.58;10.98;;;;;;;;;;5094257;28;20024;-72
2021/01/23 06:37:47;;;;;;;62.28;27.42;;;;;;;;;;5094871;28;20059;-71
2021/01/23 06:40:14;;;;;;;41.53;17.08;;;;;;;;;;5095215;28;20012;-68
2021/01/23 06:42:48;;;;;;;31.10;12.77;;;;;;;;;;5095693;28;20047;-67
2021/01/23 06:45:19;;;;;;;57.50;21.80;;;;;;;;;;5095005;28;20051;-66
2021/01/23 06:47:47;;;;;;;76.57;40.58;;;;;;;;;;5094019;28;20039;-68
2021/01/23 06:50:13;;;;;;;64.53;33.22;;;;;;;;;;5095531;28;20044;-67
2021/01/23 06:52:46;;;;;;;27.63;15.43;;;;;;;;;;5094623;28;20027;-66
2021/01/23 06:55:12;;;;;;;35.80;16.50;;;;;;;;;;5095155;28;20452;-68
2021/01/23 06:57:45;;;;;;;48.50;25.73;;;;;;;;;;5094010;28;20020;-68
2021/01/23 07:00:11;;;;;;;44.10;23.05;;;;;;;;;;5090091;28;20042;-68
2021/01/23 07:02:38;;;;;;;51.67;26.35;;;;;;;;;;5093717;28;20020;-67
2021/01/23 07:05:07;;;;;;;28.42;16.65;;;;;;;;;;5092975;28;20027;-68
2021/01/23 07:07:37;;;;;;;23.85;11.90;;;;;;;;;;5093626;28;20360;-68
2021/01/23 07:10:05;;;;;;;22.02;11.52;;;;;;;;;;5092439;28;20466;-70
2021/01/23 07:12:35;;;;;;;36.65;19.27;;;;;;;;;;5093344;28;20043;-70
2021/01/23 07:15:06;;;;;;;21.33;11.30;;;;;;;;;;5093682;28;20403;-70
2021/01/23 07:17:36;;;;;;;23.10;13.27;;;;;;;;;;5095050;28;20098;-69
2021/01/23 07:20:06;;;;;;;26.52;12.60;;;;;;;;;;5094645;28;20103;-71
2021/01/23 07:22:32;;;;;;;32.08;15.10;;;;;;;;;;5093093;28;20360;-70
2021/01/23 07:24:59;;;;;;;76.95;28.02;;;;;;;;;;5094670;28;20035;-76
2021/01/23 07:27:25;;;;;;;40.83;20.67;;;;;;;;;;5093254;28;20038;-75
2021/01/23 07:29:52;;;;;;;25.07;13.63;;;;;;;;;;5094517;28;20055;-73
2021/01/23 07:32:18;;;;;;;17.48;10.13;;;;;;;;;;5093020;28;20068;-72
2021/01/23 07:34:54;;;;;;;25.40;9.30;;;;;;;;;;5093887;28;20024;-75
2021/01/23 07:37:39;;;;;;;21.05;10.20;;;;;;;;;;5093523;28;20369;-78
2021/01/23 07:40:07;;;;;;;28.83;13.70;;;;;;;;;;5093235;28;20023;-74
2021/01/23 07:42:32;;;;;;;;;;;;;;;;;;5095446;28;20399;-76
2021/01/23 07:45:09;;;;;;;64.95;29.05;;;;;;;;;;5093331;28;19900;-76
2021/01/23 07:47:35;;;;;;;43.78;24.17;;;;;;;;;;5091810;28;20040;-74
2021/01/23 07:50:05;;;;;;;40.25;22.67;;;;;;;;;;5092925;28;20067;-73
2021/01/23 07:52:31;;;;;;;27.20;11.80;;;;;;;;;;5094024;28;20027;-71
2021/01/23 07:54:57;;;;;;;36.65;15.13;;;;;;;;;;5092733;28;20043;-72
2021/01/23 07:57:23;;;;;;;22.17;10.00;;;;;;;;;;5093785;28;20364;-72
2021/01/23 07:59:50;;;;;;;36.63;18.67;;;;;;;;;;5093903;28;20023;-68
2021/01/23 08:02:16;;;;;;;16.03;7.33;;;;;;;;;;5093968;28;20027;-66
2021/01/23 08:04:46;;;;;;;16.80;9.57;;;;;;;;;;5094243;28;20020;-71
2021/01/23 08:07:41;;;;;;;13.05;6.45;;;;;;;;;;5093921;28;20012;-70
2021/01/23 08:10:08;;;;;;;19.48;10.13;;;;;;;;;;5093941;28;20012;-66
2021/01/23 08:12:34;;;;;;;31.52;13.63;;;;;;;;;;5093727;28;20023;-68
2021/01/23 08:15:01;;;;;;;38.58;17.00;;;;;;;;;;5093501;28;20024;-70
2021/01/23 08:17:37;;;;;;;23.38;10.68;;;;;;;;;;5095240;28;20055;-68
2021/01/23 08:20:04;;;;;;;42.80;18.50;;;;;;;;;;5096470;28;20020;-70
2021/01/23 08:22:30;;;;;;;38.70;12.93;;;;;;;;;;5093419;28;20028;-71
2021/01/23 08:24:56;;;;;;;20.67;9.73;;;;;;;;;;5094787;28;20469;-72
2021/01/23 08:27:23;;;;;;;43.28;17.40;;;;;;;;;;5095106;28;20074;-73
2021/01/23 08:29:49;;;;;;;35.58;15.25;;;;;;;;;;5093000;28;20016;-71
2021/01/23 08:32:15;;;;;;;25.30;13.50;;;;;;;;;;5093229;28;20072;-70
2021/01/23 08:34:42;;;;;;;31.88;14.50;;;;;;;;;;5093692;28;20027;-69
2021/01/23 08:37:09;;;;;;;29.92;12.48;;;;;;;;;;5095996;28;20655;-69
2021/01/23 08:39:42;;;;;;;36.65;12.73;;;;;;;;;;5095442;28;20016;-70
2021/01/23 08:42:08;;;;;;;33.40;14.65;;;;;;;;;;5098051;28;20012;-64
2021/01/23 08:44:34;;;;;;;29.75;14.05;;;;;;;;;;5097676;28;20516;-64
2021/01/23 08:47:02;;;;;;;38.35;17.23;;;;;;;;;;5097526;28;20057;-65
2021/01/23 08:49:28;;;;;;;24.75;13.63;;;;;;;;;;5096971;28;20532;-65
2021/01/23 08:51:54;;;;;;;20.30;10.02;;;;;;;;;;5097248;28;20095;-65
2021/01/23 08:54:21;;;;;;;44.60;20.08;;;;;;;;;;5097085;28;20020;-66
2021/01/23 08:56:47;;;;;;;28.42;11.48;;;;;;;;;;5097208;28;20039;-65
2021/01/23 08:59:14;;;;;;;26.83;15.57;;;;;;;;;;5096184;28;20030;-65
2021/01/23 09:01:40;;;;;;;26.00;12.70;;;;;;;;;;5096091;28;20387;-66
2021/01/23 09:04:06;;;;;;;17.02;9.10;;;;;;;;;;5096717;28;20077;-67
2021/01/23 09:06:32;;;;;;;31.08;13.65;;;;;;;;;;5097253;28;20012;-69
2021/01/23 09:08:58;;;;;;;16.08;9.30;;;;;;;;;;5097200;28;20070;-66
2021/01/23 09:11:24;;;;;;;18.85;7.57;;;;;;;;;;5096824;28;20032;-66
2021/01/23 09:13:50;;;;;;;17.08;8.35;;;;;;;;;;5097114;28;20069;-66
2021/01/23 09:16:16;;;;;;;20.08;9.18;;;;;;;;;;5097104;28;20024;-66
2021/01/23 09:18:42;;;;;;;19.98;7.30;;;;;;;;;;5096445;28;20098;-67
2021/01/23 09:21:09;;;;;;;15.57;7.05;;;;;;;;;;5096972;28;20545;-67
2021/01/23 09:23:35;;;;;;;15.80;7.85;;;;;;;;;;5095656;28;20066;-66
2021/01/23 09:26:04;;;;;;;18.00;8.13;;;;;;;;;;5096423;28;20032;-67
2021/01/23 09:28:30;;;;;;;19.65;10.20;;;;;;;;;;5096587;28;20047;-67
2021/01/23 09:30:58;;;;;;;17.58;7.47;;;;;;;;;;5096701;28;20051;-65
2021/01/23 09:33:24;;;;;;;;;;;;;;;;;;5096953;28;20020;-65
2021/01/23 09:35:50;;;;;;;18.65;7.30;;;;;;;;;;5096758;28;19910;-65
2021/01/23 09:38:16;;;;;;;35.10;13.10;;;;;;;;;;5096711;28;20391;-65
2021/01/23 09:40:42;;;;;;;28.90;13.60;;;;;;;;;;5095604;28;20039;-65
2021/01/23 09:43:08;;;;;;;22.13;11.45;;;;;;;;;;5096502;28;20023;-66
2021/01/23 09:45:34;;;;;;;15.73;7.40;;;;;;;;;;5096068;28;20058;-65
2021/01/23 09:48:01;;;;;;;16.02;8.13;;;;;;;;;;5096693;28;20024;-68
2021/01/23 09:50:27;;;;;;;15.82;8.32;;;;;;;;;;5096405;28;20452;-66
2021/01/23 09:52:53;;;;;;;15.83;7.40;;;;;;;;;;5096368;28;20020;-69
2021/01/23 09:55:20;;;;;;;19.38;10.05;;;;;;;;;;5096417;28;20024;-64
2021/01/23 09:57:46;;;;;;;24.02;12.98;;;;;;;;;;5096089;28;20020;-67
2021/01/23 10:00:12;;;;;;;30.48;12.68;;;;;;;;;;5095774;28;20099;-67
2021/01/23 10:02:39;;;;;;;24.55;10.30;;;;;;;;;;5096103;28;20022;-66
2021/01/23 10:05:06;;;;;;;26.63;12.83;;;;;;;;;;5096045;28;20031;-71
2021/01/23 10:07:32;;;;;;;23.48;9.93;;;;;;;;;;5094546;28;20257;-70
2021/01/23 10:09:58;;;;;;;22.92;10.82;;;;;;;;;;5096626;28;20020;-67
2021/01/23 10:12:28;;;;;;;22.55;11.40;;;;;;;;;;5095790;28;20399;-67
2021/01/23 10:14:54;;;;;;;17.95;9.40;;;;;;;;;;5095361;28;20013;-67
2021/01/23 10:17:20;;;;;;;18.25;9.40;;;;;;;;;;5095661;28;20054;-66
2021/01/23 10:19:46;;;;;;;18.25;8.75;;;;;;;;;;5095724;28;20461;-65
2021/01/23 10:22:12;;;;;;;17.45;10.13;;;;;;;;;;5095531;28;20020;-67
2021/01/23 10:24:38;;;;;;;41.90;23.45;;;;;;;;;;5095768;28;20049;-66
2021/01/23 10:27:05;;;;;;;41.63;20.05;;;;;;;;;;5095469;28;20016;-64
2021/01/23 10:29:31;;;;;;;46.35;23.95;;;;;;;;;;5095114;28;20031;-69
2021/01/23 10:31:57;;;;;;;46.90;21.20;;;;;;;;;;5095639;28;20141;-69
2021/01/23 10:34:23;;;;;;;31.40;14.30;;;;;;;;;;5095381;28;20028;-69
2021/01/23 10:36:49;;;;;;;34.15;15.55;;;;;;;;;;5095319;28;20021;-69
2021/01/23 10:39:15;;;;;;;41.05;18.40;;;;;;;;;;5095739;28;20031;-69
2021/01/23 10:41:41;;;;;;;33.22;14.25;;;;;;;;;;5094859;28;20020;-69
2021/01/23 10:44:08;;;;;;;59.70;22.20;;;;;;;;;;5095369;28;20008;-69
2021/01/23 10:46:35;;;;;;;47.88;20.48;;;;;;;;;;5093472;28;20069;-69
2021/01/23 10:49:01;;;;;;;35.28;17.67;;;;;;;;;;5094390;28;20016;-70
2021/01/23 10:51:27;;;;;;;29.48;13.57;;;;;;;;;;5095444;28;20020;-70
2021/01/23 10:53:54;;;;;;;32.45;16.25;;;;;;;;;;5095433;28;20516;-70
2021/01/23 10:56:20;;;;;;;28.67;14.60;;;;;;;;;;5094542;28;20035;-70
2021/01/23 10:58:46;;;;;;;22.88;10.70;;;;;;;;;;5093559;28;20162;-70
2021/01/23 11:01:12;;;;;;;27.40;13.30;;;;;;;;;;5094756;28;20016;-68
2021/01/23 11:03:38;;;;;;;26.08;12.95;;;;;;;;;;5093978;28;20016;-70
2021/01/23 11:06:05;;;;;;;67.88;35.42;;;;;;;;;;5093634;28;20031;-69
2021/01/23 11:08:31;;;;;;;28.75;17.48;;;;;;;;;;5093291;28;20018;-70
2021/01/23 11:10:57;;;;;;;28.67;14.45;;;;;;;;;;5094681;28;20113;-69
2021/01/23 11:13:24;;;;;;;31.23;17.13;;;;;;;;;;5094846;28;20048;-68
2021/01/23 11:15:50;;;;;;;28.05;14.95;;;;;;;;;;5093520;28;20056;-69
2021/01/23 11:18:16;;;;;;;19.38;12.77;;;;;;;;;;5094635;28;20031;-71
2021/01/23 11:20:42;;;;;;;22.60;13.48;;;;;;;;;;5093485;28;20350;-70
2021/01/23 11:23:08;;;;;;;22.83;12.13;;;;;;;;;;5094261;28;20012;-67
2021/01/23 11:25:35;;;;;;;25.00;12.65;;;;;;;;;;5093893;28;20121;-67
2021/01/23 11:28:01;;;;;;;14.15;8.57;;;;;;;;;;5093000;28;20111;-70
2021/01/23 11:30:27;;;;;;;41.45;21.27;;;;;;;;;;5094007;28;20091;-68
2021/01/23 11:32:53;;;;;;;47.95;24.05;;;;;;;;;;5095559;28;20036;-70
2021/01/23 11:35:20;;;;;;;40.15;19.20;;;;;;;;;;5094384;28;20020;-69
2021/01/23 11:37:46;;;;;;;23.40;14.07;;;;;;;;;;5092908;28;20020;-69
2021/01/23 11:40:13;;;;;;;23.25;14.10;;;;;;;;;;5094420;28;20045;-69
2021/01/23 11:42:39;;;;;;;24.77;12.35;;;;;;;;;;5093402;28;20103;-67
2021/01/23 11:45:08;;;;;;;33.08;17.58;;;;;;;;;;5093963;28;20028;-70
2021/01/23 11:47:34;;;;;;;32.15;17.63;;;;;;;;;;5092989;28;20016;-70
2021/01/23 11:50:00;;;;;;;29.95;13.77;;;;;;;;;;5093819;28;20016;-69
2021/01/23 11:52:26;;;;;;;30.15;13.98;;;;;;;;;;5093784;28;20027;-67
2021/01/23 11:54:53;;;;;;;26.65;15.55;;;;;;;;;;5093843;28;20020;-68
2021/01/23 11:57:19;;;;;;;30.65;16.08;;;;;;;;;;5093610;28;20381;-67
2021/01/23 11:59:45;;;;;;;41.97;21.13;;;;;;;;;;5093536;28;20103;-68
2021/01/23 12:02:11;;;;;;;35.40;20.67;;;;;;;;;;5094080;28;20061;-65
2021/01/23 12:04:37;;;;;;;25.85;13.85;;;;;;;;;;5094069;28;20077;-71
2021/01/23 12:07:03;;;;;;;25.08;15.80;;;;;;;;;;5093208;28;20024;-70
2021/01/23 12:09:29;;;;;;;36.40;23.88;;;;;;;;;;5093778;28;20052;-69
2021/01/23 12:11:56;;;;;;;29.75;18.73;;;;;;;;;;5093939;28;20023;-71
2021/01/23 12:14:22;;;;;;;30.87;16.07;;;;;;;;;;5092511;28;20020;-69
2021/01/23 12:16:48;;;;;;;27.05;14.30;;;;;;;;;;5092297;28;20024;-72
2021/01/23 12:19:14;;;;;;;36.95;25.17;;;;;;;;;;5092436;28;20016;-72
2021/01/23 12:21:40;;;;;;;35.42;16.92;;;;;;;;;;5093595;28;20020;-68
2021/01/23 12:24:07;;;;;;;28.50;18.60;;;;;;;;;;5093527;28;20380;-67
2021/01/23 12:26:36;;;;;;;24.85;13.55;;;;;;;;;;5093367;28;20023;-70
2021/01/23 12:29:02;;;;;;;30.80;20.80;;;;;;;;;;5092214;28;20020;-69
2021/01/23 12:31:28;;;;;;;32.22;16.92;;;;;;;;;;5093500;28;20044;-68
2021/01/23 12:33:54;;;;;;;43.83;23.73;;;;;;;;;;5093450;28;20027;-70
2021/01/23 12:36:20;;;;;;;39.83;20.35;;;;;;;;;;5092053;28;20591;-69
2021/01/23 12:38:47;;;;;;;25.45;16.02;;;;;;;;;;5093626;28;20016;-70
2021/01/23 12:41:13;;;;;;;25.40;14.40;;;;;;;;;;5093524;28;20024;-67
2021/01/23 12:43:39;;;;;;;27.05;15.25;;;;;;;;;;5093690;28;20103;-67
2021/01/23 12:46:05;;;;;;;24.00;13.32;;;;;;;;;;5093634;28;20032;-66
2021/01/23 12:48:31;;;;;;;28.38;14.60;;;;;;;;;;5093105;28;20457;-67
2021/01/23 12:50:57;;;;;;;21.35;11.20;;;;;;;;;;5093632;28;20468;-69
2021/01/23 12:53:23;;;;;;;19.73;11.68;;;;;;;;;;5092367;28;20070;-68
2021/01/23 12:55:50;;;;;;;16.50;8.10;;;;;;;;;;5093268;28;20085;-69
2021/01/23 12:58:18;;;;;;;20.60;12.55;;;;;;;;;;5092350;28;20023;-69
2021/01/23 13:00:44;;;;;;;24.13;13.88;;;;;;;;;;5093450;28;20026;-65
2021/01/23 13:03:11;;;;;;;26.20;14.10;;;;;;;;;;5093021;28;20117;-68
2021/01/23 13:05:37;;;;;;;23.80;13.68;;;;;;;;;;5093806;28;20472;-67
2021/01/23 13:08:03;;;;;;;25.58;13.20;;;;;;;;;;5093582;28;20023;-67
2021/01/23 13:10:29;;;;;;;21.50;11.75;;;;;;;;;;5093214;28;20016;-66
2021/01/23 13:12:55;;;;;;;29.60;12.48;;;;;;;;;;5092627;28;20020;-68
2021/01/23 13:15:22;;;;;;;32.58;16.33;;;;;;;;;;5092540;28;20128;-66
2021/01/23 13:17:48;;;;;;;25.70;13.80;;;;;;;;;;5092614;28;20059;-66
2021/01/23 13:20:14;;;;;;;37.42;16.75;;;;;;;;;;5090583;28;20024;-66
2021/01/23 13:22:40;;;;;;;33.30;17.88;;;;;;;;;;5091454;28;20018;-68
2021/01/23 13:25:30;;;;;;;38.78;21.52;;;;;;;;;;5091322;28;20353;-68
2021/01/23 13:28:20;;;;;;;34.03;16.77;;;;;;;;;;5031451;28;20067;-66
2021/01/23 13:30:46;;;;;;;29.60;13.85;;;;;;;;;;5072014;28;20441;-71
2021/01/23 13:33:12;;;;;;;33.35;20.05;;;;;;;;;;5076550;28;20016;-67
2021/01/23 13:35:38;;;;;;;46.60;27.98;;;;;;;;;;5076316;28;20106;-68
2021/01/23 13:38:04;;;;;;;27.00;17.88;;;;;;;;;;5081783;28;20478;-73
2021/01/23 13:40:30;;;;;;;52.70;18.30;;;;;;;;;;5095136;28;20031;-67
2021/01/23 13:42:56;;;;;;;31.38;21.30;;;;;;;;;;5096319;28;20023;-69
2021/01/23 13:45:22;;;;;;;35.70;18.85;;;;;;;;;;5094673;28;20036;-70
2021/01/23 13:47:48;;;;;;;32.28;18.70;;;;;;;;;;5094886;28;20074;-68
2021/01/23 13:50:14;;;;;;;25.52;15.50;;;;;;;;;;5096369;28;20022;-71
2021/01/23 13:52:41;;;;;;;46.35;23.73;;;;;;;;;;5096042;28;20023;-69
2021/01/23 13:55:07;;;;;;;44.83;24.25;;;;;;;;;;5096174;28;20054;-68
2021/01/23 13:57:33;;;;;;;32.88;16.48;;;;;;;;;;5076065;28;20021;-69
2021/01/23 13:59:59;;;;;;;28.20;16.77;;;;;;;;;;5074431;28;20043;-69
2021/01/23 14:02:25;;;;;;;29.75;17.75;;;;;;;;;;5074651;28;20020;-69
2021/01/23 14:04:51;;;;;;;40.22;24.67;;;;;;;;;;5074788;28;20024;-70
2021/01/23 14:07:18;;;;;;;34.30;19.00;;;;;;;;;;5078376;28;20508;-69
2021/01/23 14:09:44;;;;;;;31.13;18.27;;;;;;;;;;5095790;28;20031;-69
2021/01/23 14:12:10;;;;;;;34.25;19.80;;;;;;;;;;5095678;28;20440;-68
2021/01/23 14:14:36;;;;;;;30.15;18.63;;;;;;;;;;5095590;28;20028;-67
2021/01/23 14:17:02;;;;;;;32.38;17.05;;;;;;;;;;5095295;28;20020;-71
2021/01/23 14:19:28;;;;;;;38.65;24.88;;;;;;;;;;5094565;28;20517;-70
2021/01/23 14:21:54;;;;;;;41.65;23.67;;;;;;;;;;5095455;28;20016;-70
2021/01/23 14:24:20;;;;;;;62.30;36.10;;;;;;;;;;5095701;28;20142;-69